ADDS TAF Data INFO
IDs: Format: Raw Decoded Include METARs

Data at: 2323 UTC 20 Oct 2017

METAR for:KLBE (Latrobe/Palmer Rgnl, PA, US)
Text:KLBE 202245Z 00000KT 10SM SKC 16/03 A3025
Temperature: 16.0°C ( 61°F)
Dewpoint: 3.0°C ( 37°F) [RH = 42%]
Pressure (altimeter):30.25 inches Hg (1024.5 mb)
Winds:calm
Visibility:10 or more sm (16+ km)
Ceiling:at least 12,000 feet AGL
Clouds:clear skies

TAF for:KLBE (Latrobe/Palmer Rgnl, PA, US) issued at 2320 UTC 20 Oct 2017
Text:KLBE 202320Z 2100/2124 VRB03KT P6SM SKC
Forecast period:0000 UTC 21 October 2017 to 0000 UTC 22 October 2017
Forecast type:FROM: standard forecast or significant change
Winds:variable direction winds at 3 MPH (3 knots; 1.5 m/s)
Visibility:6 or more sm (10+ km)
Ceiling:at least 12,000 feet AGL
Clouds:clear skies